Time;durP1;ratioP1;P1;durP2;ratioP2;P2;SDS_P1;SDS_P2;PMS_P1;PMS_P2;Temp;Humidity;BMP_temperature;BMP_pressure;BME280_temperature;BME280_humidity;BME280_pressure;Samples;Min_cycle;Max_cycle;Signal;HPM_P1;HPM_P2
2021/12/25 00:00:38;;;;;;;10.18;5.55;;;;;;;;;;6199825;28;20049;-63
2021/12/25 00:03:41;;;;;;;8.63;4.95;;;;;;;;;;6203193;28;20049;-65
2021/12/25 00:06:43;;;;;;;9.30;4.60;;;;;;;;;;6202876;28;20600;-62
2021/12/25 00:09:43;;;;;;;8.55;4.63;;;;;;;;;;6201449;28;20054;-67
2021/12/25 00:12:44;;;;;;;10.85;5.20;;;;;;;;;;6202248;28;20042;-63
2021/12/25 00:15:46;;;;;;;8.30;5.47;;;;;;;;;;6200408;28;22040;-67
2021/12/25 00:18:46;;;;;;;10.35;5.20;;;;;;;;;;6197681;28;20069;-65
2021/12/25 00:21:47;;;;;;;11.18;6.30;;;;;;;;;;6199425;28;20103;-67
2021/12/25 00:24:48;;;;;;;10.00;5.28;;;;;;;;;;6201622;28;20058;-66
2021/12/25 00:28:02;;;;;;;8.05;4.82;;;;;;;;;;6199459;28;20141;-62
2021/12/25 00:34:05;;;;;;;10.32;5.15;;;;;;;;;;6201931;28;20056;-66
2021/12/25 00:37:09;;;;;;;8.68;4.75;;;;;;;;;;6199099;28;20098;-67
2021/12/25 00:40:10;;;;;;;10.50;5.75;;;;;;;;;;6197736;28;20042;-65
2021/12/25 00:43:11;;;;;;;12.05;5.45;;;;;;;;;;6200263;28;20064;-61
2021/12/25 00:46:12;;;;;;;12.45;6.10;;;;;;;;;;6199779;28;20058;-65
2021/12/25 00:49:13;;;;;;;10.02;5.90;;;;;;;;;;6191438;28;20061;-66
2021/12/25 00:52:14;;;;;;;11.85;6.25;;;;;;;;;;6200788;28;20046;-64
2021/12/25 00:55:15;;;;;;;9.57;5.97;;;;;;;;;;6199428;28;20509;-61
2021/12/25 00:58:15;;;;;;;11.02;6.22;;;;;;;;;;6198936;28;20049;-62
2021/12/25 01:01:16;;;;;;;11.55;6.00;;;;;;;;;;6200448;28;20049;-65
2021/12/25 01:04:16;;;;;;;14.45;6.57;;;;;;;;;;6199637;28;20046;-65
2021/12/25 01:07:17;;;;;;;11.73;6.72;;;;;;;;;;6197667;28;20092;-65
2021/12/25 01:10:20;;;;;;;10.57;5.53;;;;;;;;;;6197705;28;20061;-62
2021/12/25 01:13:29;;;;;;;12.98;6.28;;;;;;;;;;6196833;28;20144;-66
2021/12/25 01:23:26;;;;;;;10.63;6.28;;;;;;;;;;6203806;28;20057;-63
2021/12/25 01:49:04;;;;;;;11.68;6.20;;;;;;;;;;6196428;28;20054;-62
2021/12/25 01:52:06;;;;;;;9.07;5.50;;;;;;;;;;6199478;28;20042;-63
2021/12/25 01:55:11;;;;;;;10.18;5.47;;;;;;;;;;6197061;28;20050;-65
2021/12/25 01:58:12;;;;;;;10.35;5.88;;;;;;;;;;6197747;28;20049;-63
2021/12/25 02:01:13;;;;;;;11.15;6.47;;;;;;;;;;6199275;28;20089;-65
2021/12/25 02:04:14;;;;;;;10.70;6.55;;;;;;;;;;6199956;28;20053;-67
2021/12/25 02:07:15;;;;;;;11.32;6.18;;;;;;;;;;6199408;28;20543;-63
2021/12/25 02:10:17;;;;;;;12.32;6.60;;;;;;;;;;6204943;28;20089;-65
2021/12/25 02:13:18;;;;;;;;;;;;;;;;;;6211503;28;20042;-67
2021/12/25 02:16:22;;;;;;;10.65;5.80;;;;;;;;;;6213784;28;19933;-65
2021/12/25 02:19:44;;;;;;;11.93;6.75;;;;;;;;;;6215655;28;20050;-63
2021/12/25 02:22:46;;;;;;;12.68;6.53;;;;;;;;;;6214129;28;20076;-67
2021/12/25 02:25:49;;;;;;;12.77;6.40;;;;;;;;;;6202866;28;20496;-63
2021/12/25 02:28:50;;;;;;;11.88;6.30;;;;;;;;;;6205954;28;20303;-66
2021/12/25 02:31:51;;;;;;;11.20;6.43;;;;;;;;;;6199103;28;20058;-67
2021/12/25 02:34:52;;;;;;;11.18;6.75;;;;;;;;;;6204446;28;20170;-64
2021/12/25 02:37:53;;;;;;;14.00;6.90;;;;;;;;;;6202287;28;20652;-63
2021/12/25 02:40:54;;;;;;;14.85;7.00;;;;;;;;;;6198743;28;20100;-65
2021/12/25 02:43:55;;;;;;;12.05;6.90;;;;;;;;;;6204587;28;20042;-64
2021/12/25 02:46:58;;;;;;;15.50;7.45;;;;;;;;;;6206272;28;20408;-69
2021/12/25 02:49:59;;;;;;;12.60;7.03;;;;;;;;;;6206869;28;20168;-65
2021/12/25 02:53:02;;;;;;;12.82;7.55;;;;;;;;;;6204952;28;20111;-65
2021/12/25 02:56:03;;;;;;;11.77;6.95;;;;;;;;;;6201903;28;20062;-64
2021/12/25 02:59:04;;;;;;;12.85;7.22;;;;;;;;;;6207065;28;20092;-68
2021/12/25 03:02:10;;;;;;;12.55;7.28;;;;;;;;;;6205081;28;20064;-68
2021/12/25 03:05:10;;;;;;;13.48;7.07;;;;;;;;;;6204830;28;20133;-64
2021/12/25 03:08:13;;;;;;;14.65;7.53;;;;;;;;;;6204155;28;20050;-69
2021/12/25 03:11:14;;;;;;;13.10;7.28;;;;;;;;;;6202872;28;20055;-65
2021/12/25 03:14:32;;;;;;;12.32;7.15;;;;;;;;;;6205739;28;20089;-63
2021/12/25 03:17:34;;;;;;;14.98;7.93;;;;;;;;;;6208067;28;20046;-65
2021/12/25 03:20:36;;;;;;;15.82;7.78;;;;;;;;;;6208305;28;20123;-68
2021/12/25 03:23:38;;;;;;;16.25;8.30;;;;;;;;;;6209974;28;20145;-65
2021/12/25 03:26:39;;;;;;;13.35;7.07;;;;;;;;;;6198214;28;20428;-68
2021/12/25 03:29:41;;;;;;;15.60;7.78;;;;;;;;;;6203288;28;20046;-64
2021/12/25 03:32:44;;;;;;;9.27;4.93;;;;;;;;;;6206666;28;20129;-65
2021/12/25 03:35:45;;;;;;;;;;;;;;;;;;6207022;28;20148;-65
2021/12/25 03:38:46;;;;;;;8.82;4.78;;;;;;;;;;6199036;28;19921;-65
2021/12/25 03:41:46;;;;;;;9.63;4.88;;;;;;;;;;6194421;28;20061;-68
2021/12/25 03:44:48;;;;;;;7.95;5.28;;;;;;;;;;6203742;28;20046;-67
2021/12/25 03:47:52;;;;;;;9.80;4.70;;;;;;;;;;6198293;28;20758;-67
2021/12/25 03:57:50;;;;;;;10.98;4.82;;;;;;;;;;6207384;28;20144;-64
2021/12/25 04:00:51;;;;;;;10.38;4.75;;;;;;;;;;6207837;28;20171;-67
2021/12/25 04:04:07;;;;;;;9.20;4.22;;;;;;;;;;6206874;28;20077;-63
2021/12/25 04:10:15;;;;;;;10.40;5.45;;;;;;;;;;6203036;28;20244;-66
2021/12/25 04:13:16;;;;;;;10.30;4.70;;;;;;;;;;6200755;28;20053;-64
2021/12/25 04:16:17;;;;;;;10.70;5.85;;;;;;;;;;6204284;28;20048;-63
2021/12/25 04:19:18;;;;;;;8.40;4.88;;;;;;;;;;6211091;28;20481;-66
2021/12/25 04:22:31;;;;;;;9.13;4.78;;;;;;;;;;6205396;28;20493;-66
2021/12/25 04:25:36;;;;;;;9.60;4.60;;;;;;;;;;6200597;28;20512;-65
2021/12/25 04:28:59;;;;;;;11.25;4.80;;;;;;;;;;6199456;28;20400;-64
2021/12/25 05:04:52;;;;;;;9.25;5.03;;;;;;;;;;6202303;28;20082;-68
2021/12/25 05:07:52;;;;;;;11.40;4.88;;;;;;;;;;6206009;28;20137;-65
2021/12/25 05:10:54;;;;;;;10.20;5.32;;;;;;;;;;6202848;28;20144;-63
2021/12/25 05:13:55;;;;;;;8.23;4.40;;;;;;;;;;6208366;28;20453;-70
2021/12/25 05:16:55;;;;;;;8.77;4.22;;;;;;;;;;6205257;28;20049;-64
2021/12/25 05:19:57;;;;;;;8.25;4.47;;;;;;;;;;6202983;28;20053;-68
2021/12/25 05:22:58;;;;;;;7.75;4.50;;;;;;;;;;6204687;28;20119;-67
2021/12/25 05:25:59;;;;;;;9.10;4.70;;;;;;;;;;6203495;28;20141;-64
2021/12/25 05:29:01;;;;;;;7.30;4.45;;;;;;;;;;6205048;28;20425;-64
2021/12/25 05:32:02;;;;;;;9.07;4.40;;;;;;;;;;6208158;28;20460;-66
2021/12/25 05:35:03;;;;;;;8.60;4.03;;;;;;;;;;6203108;28;20842;-64
2021/12/25 05:38:04;;;;;;;6.50;3.70;;;;;;;;;;6206287;28;20041;-64
2021/12/25 05:41:05;;;;;;;8.63;4.25;;;;;;;;;;6204634;28;20057;-65
2021/12/25 05:44:05;;;;;;;8.32;4.30;;;;;;;;;;6195519;28;20049;-68
2021/12/25 05:47:06;;;;;;;7.65;4.15;;;;;;;;;;6201722;28;20046;-63
2021/12/25 05:50:07;;;;;;;8.50;3.78;;;;;;;;;;6203890;28;20187;-65
2021/12/25 05:53:08;;;;;;;6.28;3.63;;;;;;;;;;6209766;28;20445;-63
2021/12/25 05:56:09;;;;;;;6.72;3.45;;;;;;;;;;6206366;28;20137;-67
2021/12/25 05:59:09;;;;;;;6.13;3.60;;;;;;;;;;6207519;28;20054;-66
2021/12/25 06:02:12;;;;;;;7.18;3.60;;;;;;;;;;6205645;28;20050;-64
2021/12/25 06:05:13;;;;;;;10.02;4.55;;;;;;;;;;6205214;28;21040;-65
2021/12/25 06:08:15;;;;;;;6.35;3.42;;;;;;;;;;6205305;28;20050;-67
2021/12/25 06:11:17;;;;;;;7.32;3.13;;;;;;;;;;6200499;28;20487;-68
2021/12/25 06:14:20;;;;;;;6.18;3.25;;;;;;;;;;6203672;28;20124;-64
2021/12/25 06:17:20;;;;;;;9.00;3.70;;;;;;;;;;6203536;28;20140;-63
2021/12/25 06:20:21;;;;;;;5.60;2.53;;;;;;;;;;6195531;28;20050;-65
2021/12/25 06:23:22;;;;;;;6.30;3.20;;;;;;;;;;6203351;28;20421;-66
2021/12/25 06:26:22;;;;;;;8.68;3.28;;;;;;;;;;6201441;28;20188;-64
2021/12/25 06:29:23;;;;;;;6.60;3.30;;;;;;;;;;6206263;28;20050;-64
2021/12/25 06:32:24;;;;;;;7.82;3.60;;;;;;;;;;6195627;28;22343;-67
2021/12/25 06:35:25;;;;;;;7.50;3.83;;;;;;;;;;6202103;28;20456;-68
2021/12/25 06:38:25;;;;;;;9.63;4.25;;;;;;;;;;6201091;28;20053;-65
2021/12/25 06:41:28;;;;;;;9.38;4.25;;;;;;;;;;6207772;28;20042;-63
2021/12/25 06:44:28;;;;;;;;;;;;;;;;;;6205388;28;20077;-64
2021/12/25 06:47:30;;;;;;;10.25;4.18;;;;;;;;;;6204456;28;19928;-64
2021/12/25 06:50:31;;;;;;;10.27;5.20;;;;;;;;;;6207527;28;20054;-63
2021/12/25 06:53:32;;;;;;;13.50;6.10;;;;;;;;;;6201373;28;20474;-64
2021/12/25 06:56:32;;;;;;;11.75;6.18;;;;;;;;;;6200596;28;20055;-66
2021/12/25 06:59:33;;;;;;;13.77;6.70;;;;;;;;;;6200531;28;20046;-65
2021/12/25 07:02:33;;;;;;;10.98;6.20;;;;;;;;;;6196714;28;20039;-65
2021/12/25 07:05:34;;;;;;;9.73;5.05;;;;;;;;;;6201518;28;20050;-66
2021/12/25 07:08:35;;;;;;;8.82;4.00;;;;;;;;;;6195370;28;20054;-64
2021/12/25 07:11:36;;;;;;;7.15;3.58;;;;;;;;;;6208698;28;20474;-69
2021/12/25 07:14:37;;;;;;;5.97;3.50;;;;;;;;;;6211400;28;20054;-67
2021/12/25 07:17:37;;;;;;;6.72;3.50;;;;;;;;;;6215803;28;20056;-66
2021/12/25 07:20:38;;;;;;;9.65;4.93;;;;;;;;;;6216981;28;20060;-65
2021/12/25 07:23:39;;;;;;;8.48;5.00;;;;;;;;;;6216392;28;20417;-68
2021/12/25 07:26:40;;;;;;;9.30;4.90;;;;;;;;;;6200822;28;20081;-67
2021/12/25 07:29:40;;;;;;;10.07;5.13;;;;;;;;;;6214888;28;20056;-67
2021/12/25 07:32:41;;;;;;;9.45;4.65;;;;;;;;;;6216618;28;20103;-64
2021/12/25 07:35:42;;;;;;;12.68;6.65;;;;;;;;;;6215512;28;20042;-66
2021/12/25 07:38:42;;;;;;;11.45;5.25;;;;;;;;;;6210524;28;20486;-67
2021/12/25 07:41:43;;;;;;;9.52;5.03;;;;;;;;;;6216456;28;20088;-67
2021/12/25 07:44:43;;;;;;;10.70;5.72;;;;;;;;;;6216218;28;20077;-67
2021/12/25 07:47:56;;;;;;;11.05;5.40;;;;;;;;;;6218964;28;20041;-70
2021/12/25 07:50:57;;;;;;;;;;;;;;;;;;6215882;28;20049;-64
2021/12/25 07:53:58;;;;;;;12.75;6.82;;;;;;;;;;6218571;28;19933;-67
2021/12/25 07:56:59;;;;;;;14.02;6.30;;;;;;;;;;6216726;28;20536;-65
2021/12/25 07:59:59;;;;;;;14.00;5.90;;;;;;;;;;6219665;28;20533;-65
2021/12/25 08:03:00;;;;;;;11.13;5.57;;;;;;;;;;6215577;28;20722;-62
2021/12/25 08:06:03;;;;;;;15.40;6.68;;;;;;;;;;6219423;28;20132;-63
2021/12/25 08:09:04;;;;;;;14.07;6.72;;;;;;;;;;6220997;28;20058;-64
2021/12/25 08:12:05;;;;;;;13.60;6.68;;;;;;;;;;6220510;28;20077;-63
2021/12/25 08:15:06;;;;;;;13.70;6.93;;;;;;;;;;6217805;28;20056;-63
2021/12/25 08:18:07;;;;;;;18.25;8.88;;;;;;;;;;6219261;28;20082;-63
2021/12/25 08:21:07;;;;;;;16.58;7.22;;;;;;;;;;6219745;28;20451;-64
2021/12/25 08:24:08;;;;;;;15.38;7.47;;;;;;;;;;6210612;28;20050;-64
2021/12/25 08:27:09;;;;;;;15.95;7.18;;;;;;;;;;6218874;28;20564;-66
2021/12/25 08:30:13;;;;;;;16.05;7.03;;;;;;;;;;6219878;28;20045;-68
2021/12/25 08:33:13;;;;;;;13.75;6.35;;;;;;;;;;6214813;28;20572;-67
2021/12/25 08:36:14;;;;;;;14.20;7.13;;;;;;;;;;6213598;28;20080;-63
2021/12/25 08:39:15;;;;;;;13.02;6.18;;;;;;;;;;6218514;28;20042;-67
2021/12/25 08:42:15;;;;;;;12.70;6.45;;;;;;;;;;6209336;28;20046;-66
2021/12/25 08:45:39;;;;;;;17.02;7.85;;;;;;;;;;6212218;28;20742;-67
2021/12/25 08:48:40;;;;;;;15.68;6.22;;;;;;;;;;6218513;28;20400;-67
2021/12/25 08:51:41;;;;;;;13.00;7.00;;;;;;;;;;6216569;28;20050;-65
2021/12/25 08:54:43;;;;;;;13.27;6.65;;;;;;;;;;6220032;28;20581;-66
2021/12/25 08:57:43;;;;;;;11.63;5.70;;;;;;;;;;6209106;28;20060;-70
2021/12/25 09:00:46;;;;;;;12.43;5.63;;;;;;;;;;6212217;28;20121;-65
2021/12/25 09:03:46;;;;;;;15.73;6.50;;;;;;;;;;6217009;28;20042;-66
2021/12/25 09:06:47;;;;;;;15.05;6.20;;;;;;;;;;6214696;28;20046;-66
2021/12/25 09:09:49;;;;;;;14.65;6.85;;;;;;;;;;6218950;28;20050;-66
2021/12/25 09:12:50;;;;;;;;;;;;;;;;;;6219121;28;20418;-69
2021/12/25 09:15:51;;;;;;;11.55;4.97;;;;;;;;;;6219558;28;19926;-69
2021/12/25 09:18:52;;;;;;;13.07;5.80;;;;;;;;;;6219632;28;20052;-66
2021/12/25 09:21:52;;;;;;;15.32;6.95;;;;;;;;;;6218350;28;20489;-68
2021/12/25 09:24:53;;;;;;;25.20;7.75;;;;;;;;;;6219424;28;20058;-66
2021/12/25 09:27:54;;;;;;;22.90;7.50;;;;;;;;;;6217177;28;20497;-65
2021/12/25 09:30:55;;;;;;;23.88;8.65;;;;;;;;;;6218962;28;20164;-65
2021/12/25 09:33:56;;;;;;;10.18;5.65;;;;;;;;;;6206918;28;20048;-65
2021/12/25 09:36:56;;;;;;;26.52;9.18;;;;;;;;;;6202425;28;20046;-65
2021/12/25 09:39:57;;;;;;;20.10;6.75;;;;;;;;;;6217229;28;20089;-67
2021/12/25 09:42:58;;;;;;;66.60;16.60;;;;;;;;;;6207430;28;20104;-66
2021/12/25 09:45:59;;;;;;;74.00;22.02;;;;;;;;;;6217537;28;20054;-69
2021/12/25 09:49:00;;;;;;;59.22;18.90;;;;;;;;;;6201444;28;20077;-67
2021/12/25 09:52:02;;;;;;;16.40;6.47;;;;;;;;;;6197014;28;20498;-66
2021/12/25 09:55:04;;;;;;;13.13;5.43;;;;;;;;;;6198016;28;20053;-72
2021/12/25 09:58:06;;;;;;;11.68;5.78;;;;;;;;;;6224525;28;20061;-67
2021/12/25 10:01:07;;;;;;;24.70;8.60;;;;;;;;;;6208689;28;20140;-66
2021/12/25 10:04:10;;;;;;;17.92;6.38;;;;;;;;;;6204935;28;20053;-72
2021/12/25 10:07:24;;;;;;;16.95;6.38;;;;;;;;;;6199371;28;20052;-72
2021/12/25 10:10:41;;;;;;;13.70;6.03;;;;;;;;;;6196322;28;20100;-68
2021/12/25 10:13:45;;;;;;;17.35;6.95;;;;;;;;;;6198396;28;20061;-66
2021/12/25 10:16:45;;;;;;;18.83;7.68;;;;;;;;;;6199945;28;20141;-69
2021/12/25 10:20:11;;;;;;;16.55;5.95;;;;;;;;;;6194682;28;20461;-71
2021/12/25 10:23:21;;;;;;;27.02;8.70;;;;;;;;;;6204750;28;20520;-72
2021/12/25 10:26:22;;;;;;;18.73;7.00;;;;;;;;;;6201439;28;20137;-64
2021/12/25 10:29:26;;;;;;;12.40;5.63;;;;;;;;;;6195725;28;20082;-73
2021/12/25 10:32:28;;;;;;;10.60;5.45;;;;;;;;;;6198188;28;20050;-65
2021/12/25 10:35:29;;;;;;;15.38;5.60;;;;;;;;;;6196252;28;20522;-72
2021/12/25 10:38:29;;;;;;;12.55;5.05;;;;;;;;;;6204318;28;20052;-66
2021/12/25 10:41:35;;;;;;;14.93;6.00;;;;;;;;;;6203474;28;20046;-67
2021/12/25 10:44:38;;;;;;;17.95;6.80;;;;;;;;;;6197994;28;20543;-69
2021/12/25 10:47:39;;;;;;;20.50;6.47;;;;;;;;;;6199546;28;20607;-65
2021/12/25 10:50:43;;;;;;;15.32;6.35;;;;;;;;;;6202570;28;20045;-64
2021/12/25 10:53:54;;;;;;;20.83;7.90;;;;;;;;;;6196404;28;20060;-67
2021/12/25 10:56:55;;;;;;;20.95;7.85;;;;;;;;;;6202908;28;20195;-69
2021/12/25 10:59:55;;;;;;;19.45;6.80;;;;;;;;;;6203541;28;20477;-73
2021/12/25 11:03:02;;;;;;;34.90;11.68;;;;;;;;;;6199656;28;20052;-66
2021/12/25 11:06:17;;;;;;;29.38;10.20;;;;;;;;;;6197684;28;20050;-72
2021/12/25 11:09:18;;;;;;;25.08;9.20;;;;;;;;;;6200512;28;20052;-66
2021/12/25 11:12:22;;;;;;;18.48;6.65;;;;;;;;;;6204583;28;20470;-67
2021/12/25 11:15:26;;;;;;;16.30;7.50;;;;;;;;;;6210719;28;20042;-74
2021/12/25 11:18:26;;;;;;;16.05;6.28;;;;;;;;;;6217191;28;20070;-67
2021/12/25 11:21:36;;;;;;;19.42;7.57;;;;;;;;;;6200436;28;20046;-71
2021/12/25 11:24:43;;;;;;;21.98;8.32;;;;;;;;;;6208300;28;20045;-66
2021/12/25 11:27:44;;;;;;;20.15;8.88;;;;;;;;;;6205545;28;20124;-70
2021/12/25 11:30:47;;;;;;;16.33;6.75;;;;;;;;;;6210045;28;20046;-71
2021/12/25 11:33:50;;;;;;;15.93;6.55;;;;;;;;;;6202936;28;20524;-70
2021/12/25 11:36:54;;;;;;;16.00;5.88;;;;;;;;;;6205417;28;20084;-69
2021/12/25 11:39:56;;;;;;;15.55;6.38;;;;;;;;;;6207847;28;21111;-65
2021/12/25 11:42:59;;;;;;;12.82;6.18;;;;;;;;;;6204236;28;20046;-73
2021/12/25 11:46:05;;;;;;;27.55;9.23;;;;;;;;;;6203097;28;20077;-71
2021/12/25 11:49:13;;;;;;;27.20;10.75;;;;;;;;;;6198027;28;20486;-65
2021/12/25 11:52:18;;;;;;;31.13;12.32;;;;;;;;;;6200274;28;20061;-69
2021/12/25 11:58:45;;;;;;;;;;;;;;;;;;6207779;28;20674;-72
2021/12/25 12:01:49;;;;;;;38.42;9.95;;;;;;;;;;6207047;28;19968;-65
2021/12/25 12:05:25;;;;;;;15.85;7.38;;;;;;;;;;6205405;28;20074;-70
2021/12/25 12:08:25;;;;;;;19.25;7.15;;;;;;;;;;6199776;28;20047;-65
2021/12/25 12:11:28;;;;;;;23.00;8.70;;;;;;;;;;6210391;28;20046;-67
2021/12/25 12:14:29;;;;;;;29.40;11.20;;;;;;;;;;6200276;28;20042;-71
2021/12/25 12:17:32;;;;;;;26.42;9.75;;;;;;;;;;6200802;28;20069;-70
2021/12/25 12:20:40;;;;;;;24.60;8.63;;;;;;;;;;6203464;28;20046;-68
2021/12/25 12:24:22;;;;;;;24.50;9.02;;;;;;;;;;6196071;28;20058;-65
2021/12/25 12:27:30;;;;;;;;;;;;;;;;;;6205225;28;20130;-66
2021/12/25 12:30:34;;;;;;;21.02;8.52;;;;;;;;;;6201740;28;19991;-72
2021/12/25 12:33:36;;;;;;;21.00;9.15;;;;;;;;;;6203978;28;20049;-65
2021/12/25 12:36:37;;;;;;;26.33;9.65;;;;;;;;;;6201648;28;20488;-65
2021/12/25 12:39:39;;;;;;;30.95;10.57;;;;;;;;;;6204944;28;20104;-66
2021/12/25 12:42:40;;;;;;;21.83;10.10;;;;;;;;;;6204750;28;20464;-66
2021/12/25 12:45:52;;;;;;;29.33;10.48;;;;;;;;;;6205067;28;20058;-71
2021/12/25 12:49:04;;;;;;;73.75;21.40;;;;;;;;;;6199704;28;20054;-70
2021/12/25 12:52:14;;;;;;;42.08;14.55;;;;;;;;;;6202453;28;20070;-71
2021/12/25 12:55:30;;;;;;;32.00;10.85;;;;;;;;;;6202168;28;20506;-70
2021/12/25 12:58:30;;;;;;;25.85;10.65;;;;;;;;;;6206538;28;20045;-66
2021/12/25 13:01:31;;;;;;;28.38;9.65;;;;;;;;;;6201652;28;20492;-67
2021/12/25 13:05:02;;;;;;;29.25;10.52;;;;;;;;;;6201987;28;20538;-72
2021/12/25 13:08:20;;;;;;;67.05;19.15;;;;;;;;;;6206616;28;20182;-66
2021/12/25 13:11:31;;;;;;;35.30;12.60;;;;;;;;;;6205242;28;20038;-67
2021/12/25 13:14:33;;;;;;;21.30;9.43;;;;;;;;;;6201512;28;20401;-70
2021/12/25 13:17:33;;;;;;;27.27;11.23;;;;;;;;;;6204048;28;20966;-65
2021/12/25 13:20:39;;;;;;;22.42;9.60;;;;;;;;;;6197541;28;20065;-65
2021/12/25 13:23:52;;;;;;;26.38;9.70;;;;;;;;;;6203131;28;20155;-66
2021/12/25 13:26:52;;;;;;;;;;;;;;;;;;6201646;28;20073;-65
2021/12/25 13:29:53;;;;;;;31.35;12.07;;;;;;;;;;6202539;28;20336;-65
2021/12/25 13:32:54;;;;;;;32.95;12.40;;;;;;;;;;6206037;28;20056;-64
2021/12/25 13:36:05;;;;;;;45.55;15.40;;;;;;;;;;6195723;28;20397;-64
2021/12/25 13:39:09;;;;;;;36.03;12.73;;;;;;;;;;6195952;28;21221;-67
2021/12/25 13:42:12;;;;;;;27.95;9.65;;;;;;;;;;6204668;28;20050;-69
2021/12/25 13:45:13;;;;;;;22.77;9.98;;;;;;;;;;6206927;28;20273;-70
2021/12/25 13:48:13;;;;;;;35.55;14.13;;;;;;;;;;6201387;28;20054;-67
2021/12/25 13:51:15;;;;;;;35.97;14.38;;;;;;;;;;6204919;28;20420;-65
2021/12/25 13:54:19;;;;;;;28.53;12.37;;;;;;;;;;6204497;28;20053;-70
2021/12/25 13:57:28;;;;;;;26.40;9.68;;;;;;;;;;6201023;28;20068;-72
2021/12/25 14:00:32;;;;;;;33.00;12.30;;;;;;;;;;6197271;28;20474;-66
2021/12/25 14:03:34;;;;;;;28.40;11.90;;;;;;;;;;6204288;28;20057;-71
2021/12/25 14:06:35;;;;;;;29.43;11.83;;;;;;;;;;6205650;28;20046;-66
2021/12/25 14:09:35;;;;;;;24.77;11.63;;;;;;;;;;6200143;28;20064;-66
2021/12/25 14:12:39;;;;;;;35.05;13.10;;;;;;;;;;6204892;28;20610;-68
2021/12/25 14:15:45;;;;;;;27.75;12.60;;;;;;;;;;6201180;28;20131;-65
2021/12/25 14:18:45;;;;;;;29.08;11.90;;;;;;;;;;6200545;28;20053;-67
2021/12/25 14:21:58;;;;;;;22.85;10.30;;;;;;;;;;6203474;28;20054;-68
2021/12/25 14:24:58;;;;;;;21.27;9.25;;;;;;;;;;6203002;28;20050;-65
2021/12/25 14:28:00;;;;;;;23.98;9.45;;;;;;;;;;6208170;28;20123;-68
2021/12/25 14:31:21;;;;;;;23.50;8.57;;;;;;;;;;6202309;28;20096;-65
2021/12/25 14:34:30;;;;;;;23.70;8.05;;;;;;;;;;6201638;28;20493;-64
2021/12/25 14:37:36;;;;;;;23.88;9.75;;;;;;;;;;6201628;28;20052;-67
2021/12/25 14:40:45;;;;;;;29.55;12.73;;;;;;;;;;6194409;28;20050;-67
2021/12/25 14:43:46;;;;;;;34.10;11.90;;;;;;;;;;6201305;28;20050;-65
2021/12/25 14:47:03;;;;;;;32.88;10.98;;;;;;;;;;6200899;28;20072;-66
2021/12/25 14:50:13;;;;;;;32.10;11.80;;;;;;;;;;6197596;28;20453;-68
2021/12/25 14:53:17;;;;;;;37.78;12.27;;;;;;;;;;6198141;28;20545;-67
2021/12/25 14:56:33;;;;;;;37.05;12.20;;;;;;;;;;6194048;28;20575;-69
2021/12/25 14:59:39;;;;;;;36.58;11.25;;;;;;;;;;6201238;28;20492;-64
2021/12/25 15:02:39;;;;;;;40.67;11.95;;;;;;;;;;6201691;28;20099;-68
2021/12/25 15:05:43;;;;;;;41.83;12.25;;;;;;;;;;6193491;28;20050;-66
2021/12/25 15:08:44;;;;;;;42.08;13.50;;;;;;;;;;6202062;28;20050;-66
2021/12/25 15:11:47;;;;;;;41.63;13.48;;;;;;;;;;6204254;28;20049;-69
2021/12/25 15:14:52;;;;;;;58.65;18.10;;;;;;;;;;6202998;28;20549;-65
2021/12/25 15:17:53;;;;;;;40.35;13.15;;;;;;;;;;6205898;28;20604;-64
2021/12/25 15:21:04;;;;;;;41.50;14.52;;;;;;;;;;6202921;28;21505;-66
2021/12/25 15:24:11;;;;;;;48.03;16.48;;;;;;;;;;6202130;28;20062;-67
2021/12/25 15:27:23;;;;;;;57.15;16.58;;;;;;;;;;6200555;28;20144;-66
2021/12/25 15:30:28;;;;;;;90.30;21.83;;;;;;;;;;6201876;28;20524;-66
2021/12/25 15:33:29;;;;;;;49.58;16.45;;;;;;;;;;6204318;28;20097;-67
2021/12/25 15:36:32;;;;;;;37.38;13.30;;;;;;;;;;6206028;28;20053;-68
2021/12/25 15:39:37;;;;;;;51.35;17.70;;;;;;;;;;6203761;28;20061;-71
2021/12/25 15:42:39;;;;;;;42.83;16.08;;;;;;;;;;6205097;28;20495;-71
2021/12/25 15:45:39;;;;;;;46.35;16.25;;;;;;;;;;6203556;28;20460;-72
2021/12/25 15:48:41;;;;;;;62.75;19.00;;;;;;;;;;6203589;28;20057;-69
2021/12/25 15:52:01;;;;;;;78.45;21.85;;;;;;;;;;6203624;28;20050;-69
2021/12/25 15:55:02;;;;;;;82.18;23.77;;;;;;;;;;6203555;28;20046;-71
2021/12/25 15:58:07;;;;;;;67.90;20.02;;;;;;;;;;6204659;28;20159;-68
2021/12/25 16:01:07;;;;;;;59.70;19.65;;;;;;;;;;6211716;28;20053;-71
2021/12/25 16:04:08;;;;;;;62.40;21.60;;;;;;;;;;6207086;28;20424;-70
2021/12/25 16:07:10;;;;;;;62.15;22.52;;;;;;;;;;6209288;28;20478;-68
2021/12/25 16:10:11;;;;;;;61.95;22.08;;;;;;;;;;6206136;28;20062;-69
2021/12/25 16:13:18;;;;;;;82.53;28.45;;;;;;;;;;6207561;28;20931;-68
2021/12/25 16:16:20;;;;;;;88.95;30.17;;;;;;;;;;6208982;28;20050;-68
2021/12/25 16:19:22;;;;;;;98.60;31.15;;;;;;;;;;6206695;28;20046;-69
2021/12/25 16:22:22;;;;;;;67.30;22.67;;;;;;;;;;6209652;28;20049;-69
2021/12/25 16:25:23;;;;;;;51.50;18.98;;;;;;;;;;6206756;28;20057;-69
2021/12/25 16:28:24;;;;;;;42.22;15.60;;;;;;;;;;6207549;28;20054;-69
2021/12/25 16:31:25;;;;;;;47.40;15.85;;;;;;;;;;6208246;28;20153;-69
2021/12/25 16:34:25;;;;;;;42.47;16.63;;;;;;;;;;6207360;28;20420;-65
2021/12/25 16:37:26;;;;;;;42.03;18.67;;;;;;;;;;6209337;28;20046;-67
2021/12/25 16:40:27;;;;;;;47.17;19.75;;;;;;;;;;6209477;28;20057;-65
2021/12/25 16:43:29;;;;;;;38.72;16.58;;;;;;;;;;6209017;28;20062;-65
2021/12/25 16:46:30;;;;;;;;;;;;;;;;;;6211738;28;20049;-67
2021/12/25 16:49:31;;;;;;;46.33;19.10;;;;;;;;;;6208558;28;19937;-72
2021/12/25 16:52:32;;;;;;;37.33;17.23;;;;;;;;;;6210151;28;20471;-62
2021/12/25 16:55:35;;;;;;;42.67;17.63;;;;;;;;;;6208095;28;20085;-70
2021/12/25 16:58:35;;;;;;;44.13;18.45;;;;;;;;;;6206213;28;20781;-70
2021/12/25 17:01:36;;;;;;;44.38;20.25;;;;;;;;;;6205026;28;20061;-67
2021/12/25 17:04:36;;;;;;;43.35;18.08;;;;;;;;;;6201548;28;20054;-69
2021/12/25 17:07:37;;;;;;;47.60;19.17;;;;;;;;;;6202782;28;20112;-71
2021/12/25 17:10:38;;;;;;;42.10;17.02;;;;;;;;;;6202616;28;20064;-69
2021/12/25 17:13:39;;;;;;;38.50;15.77;;;;;;;;;;6203572;28;20080;-67
2021/12/25 17:16:40;;;;;;;38.65;16.58;;;;;;;;;;6200212;28;21166;-68
2021/12/25 17:19:41;;;;;;;33.67;14.65;;;;;;;;;;6199304;28;20060;-67
2021/12/25 17:22:42;;;;;;;38.92;15.73;;;;;;;;;;6203652;28;20046;-69
2021/12/25 17:25:43;;;;;;;38.85;15.90;;;;;;;;;;6201797;28;20088;-69
2021/12/25 17:28:43;;;;;;;38.03;16.20;;;;;;;;;;6200905;28;20441;-68
2021/12/25 17:31:46;;;;;;;45.60;16.73;;;;;;;;;;6202564;28;20062;-68
2021/12/25 17:34:46;;;;;;;;;;;;;;;;;;6200439;28;20136;-69
2021/12/25 17:37:48;;;;;;;38.85;15.13;;;;;;;;;;6204816;28;19925;-67
2021/12/25 17:40:48;;;;;;;38.60;13.95;;;;;;;;;;6205186;28;20045;-70
2021/12/25 17:43:49;;;;;;;41.53;16.75;;;;;;;;;;6202664;28;20050;-69
2021/12/25 17:46:51;;;;;;;52.70;18.65;;;;;;;;;;6208192;28;20042;-68
2021/12/25 17:49:52;;;;;;;45.25;17.23;;;;;;;;;;6202042;28;20107;-60
2021/12/25 17:52:54;;;;;;;44.72;16.45;;;;;;;;;;6200934;28;20080;-63
2021/12/25 17:55:55;;;;;;;49.08;18.80;;;;;;;;;;6202661;28;20050;-62
2021/12/25 17:58:56;;;;;;;47.95;19.63;;;;;;;;;;6201218;28;20057;-65
2021/12/25 18:01:57;;;;;;;51.40;19.63;;;;;;;;;;6206251;28;20084;-66
2021/12/25 18:04:58;;;;;;;54.55;21.48;;;;;;;;;;6203083;28;20049;-66
2021/12/25 18:07:58;;;;;;;47.15;21.50;;;;;;;;;;6205282;28;20054;-66
2021/12/25 18:10:59;;;;;;;52.55;20.35;;;;;;;;;;6207106;28;20053;-66
2021/12/25 18:14:00;;;;;;;60.50;22.40;;;;;;;;;;6204746;28;20052;-63
2021/12/25 18:17:04;;;;;;;58.83;23.58;;;;;;;;;;6206454;28;20144;-65
2021/12/25 18:20:07;;;;;;;65.07;25.17;;;;;;;;;;6201376;28;20220;-62
2021/12/25 18:23:12;;;;;;;64.28;26.05;;;;;;;;;;6202798;28;20058;-68
2021/12/25 18:26:13;;;;;;;59.78;24.20;;;;;;;;;;6205861;28;20065;-62
2021/12/25 18:29:13;;;;;;;64.10;24.60;;;;;;;;;;6205203;28;20417;-64
2021/12/25 18:32:14;;;;;;;62.58;24.23;;;;;;;;;;6206508;28;20049;-63
2021/12/25 18:35:15;;;;;;;66.45;25.40;;;;;;;;;;6204829;28;20044;-64
2021/12/25 18:38:16;;;;;;;68.57;26.70;;;;;;;;;;6203956;28;20624;-65
2021/12/25 18:41:17;;;;;;;72.90;26.20;;;;;;;;;;6203926;28;20057;-67
2021/12/25 18:44:19;;;;;;;64.72;25.92;;;;;;;;;;6204199;28;20864;-66
2021/12/25 18:47:21;;;;;;;98.63;32.58;;;;;;;;;;6206831;28;20081;-67
2021/12/25 18:50:25;;;;;;;132.13;45.28;;;;;;;;;;6205796;28;20493;-64
2021/12/25 18:53:26;;;;;;;107.88;40.88;;;;;;;;;;6204173;28;20096;-65
2021/12/25 18:56:27;;;;;;;105.00;40.13;;;;;;;;;;6206205;28;20089;-65
2021/12/25 18:59:28;;;;;;;109.93;40.72;;;;;;;;;;6204963;28;20131;-67
2021/12/25 19:02:29;;;;;;;105.88;40.47;;;;;;;;;;6200888;28;20571;-66
2021/12/25 19:05:29;;;;;;;97.88;36.40;;;;;;;;;;6200808;28;20056;-64
2021/12/25 19:08:31;;;;;;;84.25;33.92;;;;;;;;;;6205009;28;20167;-63
2021/12/25 19:11:32;;;;;;;82.47;32.78;;;;;;;;;;6204902;28;20156;-65
2021/12/25 19:14:33;;;;;;;103.43;36.60;;;;;;;;;;6203985;28;20683;-68
2021/12/25 19:17:34;;;;;;;88.00;35.08;;;;;;;;;;6205968;28;20057;-63
2021/12/25 19:20:36;;;;;;;97.32;37.85;;;;;;;;;;6203253;28;20081;-68